sensor_id;sensor_type;location;lat;lon;timestamp;temperature;humidity
38514;DHT22;24282;48.400;10.808;2022-12-29T00:01:29;3.30;84.90
38514;DHT22;24282;48.400;10.808;2022-12-29T00:03:55;3.30;84.80
38514;DHT22;24282;48.400;10.808;2022-12-29T00:06:20;3.30;84.80
38514;DHT22;24282;48.400;10.808;2022-12-29T00:08:46;3.30;84.80
38514;DHT22;24282;48.400;10.808;2022-12-29T00:11:15;3.20;84.70
38514;DHT22;24282;48.400;10.808;2022-12-29T00:13:41;3.20;84.60
38514;DHT22;24282;48.400;10.808;2022-12-29T00:16:26;3.20;84.50
38514;DHT22;24282;48.400;10.808;2022-12-29T00:18:52;3.20;84.50
38514;DHT22;24282;48.400;10.808;2022-12-29T00:21:20;3.20;84.60
38514;DHT22;24282;48.400;10.808;2022-12-29T00:24:06;3.20;84.70
38514;DHT22;24282;48.400;10.808;2022-12-29T00:26:49;3.20;84.80
38514;DHT22;24282;48.400;10.808;2022-12-29T00:29:37;3.20;84.80
38514;DHT22;24282;48.400;10.808;2022-12-29T00:32:21;3.20;84.80
38514;DHT22;24282;48.400;10.808;2022-12-29T00:35:08;3.20;84.70
38514;DHT22;24282;48.400;10.808;2022-12-29T00:37:42;3.20;84.80
38514;DHT22;24282;48.400;10.808;2022-12-29T00:40:28;3.20;84.80
38514;DHT22;24282;48.400;10.808;2022-12-29T00:43:13;3.10;84.70
38514;DHT22;24282;48.400;10.808;2022-12-29T00:45:58;3.20;84.60
38514;DHT22;24282;48.400;10.808;2022-12-29T00:48:23;3.20;84.70
38514;DHT22;24282;48.400;10.808;2022-12-29T00:51:08;3.10;84.70
38514;DHT22;24282;48.400;10.808;2022-12-29T00:53:34;3.10;84.70
38514;DHT22;24282;48.400;10.808;2022-12-29T00:56:00;3.10;84.70
38514;DHT22;24282;48.400;10.808;2022-12-29T00:58:30;3.10;84.70
38514;DHT22;24282;48.400;10.808;2022-12-29T01:01:07;3.10;84.80
38514;DHT22;24282;48.400;10.808;2022-12-29T01:03:34;3.10;84.90
38514;DHT22;24282;48.400;10.808;2022-12-29T01:06:04;3.10;84.90
38514;DHT22;24282;48.400;10.808;2022-12-29T01:08:31;3.10;85.00
38514;DHT22;24282;48.400;10.808;2022-12-29T01:10:58;3.10;85.00
38514;DHT22;24282;48.400;10.808;2022-12-29T01:13:24;3.10;85.00
38514;DHT22;24282;48.400;10.808;2022-12-29T01:15:51;3.10;84.90
38514;DHT22;24282;48.400;10.808;2022-12-29T01:18:17;3.10;84.90
38514;DHT22;24282;48.400;10.808;2022-12-29T01:20:43;3.10;85.00
38514;DHT22;24282;48.400;10.808;2022-12-29T01:23:09;3.10;85.10
38514;DHT22;24282;48.400;10.808;2022-12-29T01:25:34;3.10;85.10
38514;DHT22;24282;48.400;10.808;2022-12-29T01:28:00;3.20;85.10
38514;DHT22;24282;48.400;10.808;2022-12-29T01:30:26;3.20;85.10
38514;DHT22;24282;48.400;10.808;2022-12-29T01:32:52;3.20;85.20
38514;DHT22;24282;48.400;10.808;2022-12-29T01:35:18;3.20;85.10
38514;DHT22;24282;48.400;10.808;2022-12-29T01:37:44;3.20;85.10
38514;DHT22;24282;48.400;10.808;2022-12-29T01:40:10;3.20;85.20
38514;DHT22;24282;48.400;10.808;2022-12-29T01:42:36;3.20;85.10
38514;DHT22;24282;48.400;10.808;2022-12-29T01:45:28;3.20;85.20
38514;DHT22;24282;48.400;10.808;2022-12-29T01:47:58;3.30;85.30
38514;DHT22;24282;48.400;10.808;2022-12-29T01:50:37;3.30;85.40
38514;DHT22;24282;48.400;10.808;2022-12-29T01:53:15;3.30;85.30
38514;DHT22;24282;48.400;10.808;2022-12-29T01:55:52;3.30;85.40
38514;DHT22;24282;48.400;10.808;2022-12-29T01:58:22;3.30;85.40
38514;DHT22;24282;48.400;10.808;2022-12-29T02:00:50;3.40;85.40
38514;DHT22;24282;48.400;10.808;2022-12-29T02:03:18;3.40;85.40
38514;DHT22;24282;48.400;10.808;2022-12-29T02:08:46;3.40;85.40
38514;DHT22;24282;48.400;10.808;2022-12-29T02:11:12;3.40;85.30
38514;DHT22;24282;48.400;10.808;2022-12-29T02:13:38;3.40;85.20
38514;DHT22;24282;48.400;10.808;2022-12-29T02:35:48;3.50;85.40
38514;DHT22;24282;48.400;10.808;2022-12-29T02:44:12;3.50;85.60
38514;DHT22;24282;48.400;10.808;2022-12-29T02:47:03;3.50;85.60
38514;DHT22;24282;48.400;10.808;2022-12-29T02:49:38;3.50;85.60
38514;DHT22;24282;48.400;10.808;2022-12-29T02:52:12;3.60;85.70
38514;DHT22;24282;48.400;10.808;2022-12-29T02:54:41;3.60;85.80
38514;DHT22;24282;48.400;10.808;2022-12-29T03:00:01;3.60;85.80
38514;DHT22;24282;48.400;10.808;2022-12-29T03:02:39;3.60;85.80
38514;DHT22;24282;48.400;10.808;2022-12-29T03:13:02;3.70;85.70
38514;DHT22;24282;48.400;10.808;2022-12-29T03:19:00;3.70;85.70
38514;DHT22;24282;48.400;10.808;2022-12-29T03:21:32;3.80;85.60
38514;DHT22;24282;48.400;10.808;2022-12-29T03:24:22;3.80;85.40
38514;DHT22;24282;48.400;10.808;2022-12-29T03:26:53;3.80;85.30
38514;DHT22;24282;48.400;10.808;2022-12-29T03:29:20;3.80;85.30
38514;DHT22;24282;48.400;10.808;2022-12-29T03:31:49;3.90;85.30
38514;DHT22;24282;48.400;10.808;2022-12-29T03:34:16;3.90;85.30
38514;DHT22;24282;48.400;10.808;2022-12-29T03:37:03;3.90;85.10
38514;DHT22;24282;48.400;10.808;2022-12-29T03:39:31;3.90;85.20
38514;DHT22;24282;48.400;10.808;2022-12-29T03:42:03;3.90;85.20
38514;DHT22;24282;48.400;10.808;2022-12-29T03:44:38;4.00;85.10
38514;DHT22;24282;48.400;10.808;2022-12-29T03:47:06;4.00;85.00
38514;DHT22;24282;48.400;10.808;2022-12-29T03:49:32;4.00;84.40
38514;DHT22;24282;48.400;10.808;2022-12-29T03:51:58;4.00;83.20
38514;DHT22;24282;48.400;10.808;2022-12-29T03:54:25;4.20;82.40
38514;DHT22;24282;48.400;10.808;2022-12-29T03:56:51;4.20;81.90
38514;DHT22;24282;48.400;10.808;2022-12-29T03:59:27;4.50;79.60
38514;DHT22;24282;48.400;10.808;2022-12-29T04:01:53;4.70;75.90
38514;DHT22;24282;48.400;10.808;2022-12-29T04:04:19;4.90;75.10
38514;DHT22;24282;48.400;10.808;2022-12-29T04:06:45;5.10;75.30
38514;DHT22;24282;48.400;10.808;2022-12-29T04:09:11;5.30;74.30
38514;DHT22;24282;48.400;10.808;2022-12-29T04:11:42;5.50;71.80
38514;DHT22;24282;48.400;10.808;2022-12-29T04:14:08;5.70;71.20
38514;DHT22;24282;48.400;10.808;2022-12-29T04:16:34;5.90;69.90
38514;DHT22;24282;48.400;10.808;2022-12-29T04:19:06;6.10;68.90
38514;DHT22;24282;48.400;10.808;2022-12-29T04:21:33;6.20;68.20
38514;DHT22;24282;48.400;10.808;2022-12-29T04:23:59;6.30;67.90
38514;DHT22;24282;48.400;10.808;2022-12-29T04:26:25;6.50;65.70
38514;DHT22;24282;48.400;10.808;2022-12-29T04:29:09;6.50;65.80
38514;DHT22;24282;48.400;10.808;2022-12-29T04:31:44;6.60;66.00
38514;DHT22;24282;48.400;10.808;2022-12-29T04:34:10;6.60;66.50
38514;DHT22;24282;48.400;10.808;2022-12-29T04:36:37;6.60;66.40
38514;DHT22;24282;48.400;10.808;2022-12-29T04:39:05;6.70;64.80
38514;DHT22;24282;48.400;10.808;2022-12-29T04:41:32;6.70;65.10
38514;DHT22;24282;48.400;10.808;2022-12-29T04:43:58;6.80;64.30
38514;DHT22;24282;48.400;10.808;2022-12-29T04:46:36;6.80;63.70
38514;DHT22;24282;48.400;10.808;2022-12-29T04:49:37;6.90;63.70
38514;DHT22;24282;48.400;10.808;2022-12-29T04:52:19;7.00;63.00
38514;DHT22;24282;48.400;10.808;2022-12-29T04:54:45;7.00;62.50
38514;DHT22;24282;48.400;10.808;2022-12-29T04:57:16;7.00;63.00
38514;DHT22;24282;48.400;10.808;2022-12-29T04:59:46;7.00;62.50
38514;DHT22;24282;48.400;10.808;2022-12-29T05:02:12;7.00;62.60
38514;DHT22;24282;48.400;10.808;2022-12-29T05:04:37;7.00;62.30
38514;DHT22;24282;48.400;10.808;2022-12-29T05:07:03;7.10;61.30
38514;DHT22;24282;48.400;10.808;2022-12-29T05:09:29;7.10;61.40
38514;DHT22;24282;48.400;10.808;2022-12-29T05:11:56;7.10;61.30
38514;DHT22;24282;48.400;10.808;2022-12-29T05:14:22;7.10;61.20
38514;DHT22;24282;48.400;10.808;2022-12-29T05:16:47;7.10;61.50
38514;DHT22;24282;48.400;10.808;2022-12-29T05:19:14;7.10;61.40
38514;DHT22;24282;48.400;10.808;2022-12-29T05:21:40;7.10;61.00
38514;DHT22;24282;48.400;10.808;2022-12-29T05:24:07;7.10;61.30
38514;DHT22;24282;48.400;10.808;2022-12-29T05:26:33;7.10;61.20
38514;DHT22;24282;48.400;10.808;2022-12-29T05:29:21;7.20;61.50
38514;DHT22;24282;48.400;10.808;2022-12-29T05:31:47;7.10;61.80
38514;DHT22;24282;48.400;10.808;2022-12-29T05:34:13;7.10;62.00
38514;DHT22;24282;48.400;10.808;2022-12-29T05:36:39;7.10;62.00
38514;DHT22;24282;48.400;10.808;2022-12-29T05:39:08;7.10;61.70
38514;DHT22;24282;48.400;10.808;2022-12-29T05:41:34;7.10;61.60
38514;DHT22;24282;48.400;10.808;2022-12-29T05:44:03;7.00;62.20
38514;DHT22;24282;48.400;10.808;2022-12-29T05:46:58;7.00;62.40
38514;DHT22;24282;48.400;10.808;2022-12-29T05:49:50;7.00;62.00
38514;DHT22;24282;48.400;10.808;2022-12-29T05:52:37;7.00;62.40
38514;DHT22;24282;48.400;10.808;2022-12-29T05:55:03;7.00;62.70
38514;DHT22;24282;48.400;10.808;2022-12-29T05:57:30;7.00;63.00
38514;DHT22;24282;48.400;10.808;2022-12-29T06:00:05;7.00;63.30
38514;DHT22;24282;48.400;10.808;2022-12-29T06:02:40;7.00;63.40
38514;DHT22;24282;48.400;10.808;2022-12-29T06:05:06;7.00;63.40
38514;DHT22;24282;48.400;10.808;2022-12-29T06:07:34;7.00;63.60
38514;DHT22;24282;48.400;10.808;2022-12-29T06:09:59;7.10;63.80
38514;DHT22;24282;48.400;10.808;2022-12-29T06:12:26;7.00;64.20
38514;DHT22;24282;48.400;10.808;2022-12-29T06:14:53;7.00;64.50
38514;DHT22;24282;48.400;10.808;2022-12-29T06:17:19;7.00;64.40
38514;DHT22;24282;48.400;10.808;2022-12-29T06:19:45;7.10;64.40
38514;DHT22;24282;48.400;10.808;2022-12-29T06:22:11;7.10;64.70
38514;DHT22;24282;48.400;10.808;2022-12-29T06:24:39;7.10;64.40
38514;DHT22;24282;48.400;10.808;2022-12-29T06:27:05;7.20;64.70
38514;DHT22;24282;48.400;10.808;2022-12-29T06:29:31;7.10;64.60
38514;DHT22;24282;48.400;10.808;2022-12-29T06:31:57;7.10;64.90
38514;DHT22;24282;48.400;10.808;2022-12-29T06:34:24;7.10;65.20
38514;DHT22;24282;48.400;10.808;2022-12-29T06:36:50;7.00;65.40
38514;DHT22;24282;48.400;10.808;2022-12-29T06:39:16;7.00;65.40
38514;DHT22;24282;48.400;10.808;2022-12-29T06:41:52;7.00;65.70
38514;DHT22;24282;48.400;10.808;2022-12-29T06:44:40;7.10;65.60
38514;DHT22;24282;48.400;10.808;2022-12-29T06:47:09;7.20;65.40
38514;DHT22;24282;48.400;10.808;2022-12-29T06:49:34;7.20;65.50
38514;DHT22;24282;48.400;10.808;2022-12-29T06:52:00;7.20;65.70
38514;DHT22;24282;48.400;10.808;2022-12-29T06:54:32;7.30;65.80
38514;DHT22;24282;48.400;10.808;2022-12-29T06:56:58;7.40;65.30
38514;DHT22;24282;48.400;10.808;2022-12-29T06:59:24;7.50;65.30
38514;DHT22;24282;48.400;10.808;2022-12-29T07:01:50;7.50;65.60
38514;DHT22;24282;48.400;10.808;2022-12-29T07:04:16;7.60;65.50
38514;DHT22;24282;48.400;10.808;2022-12-29T07:06:41;7.70;65.50
38514;DHT22;24282;48.400;10.808;2022-12-29T07:09:08;7.70;65.60
38514;DHT22;24282;48.400;10.808;2022-12-29T07:11:34;7.70;66.00
38514;DHT22;24282;48.400;10.808;2022-12-29T07:14:00;7.70;66.20
38514;DHT22;24282;48.400;10.808;2022-12-29T07:16:25;7.70;66.20
38514;DHT22;24282;48.400;10.808;2022-12-29T07:18:51;7.70;66.50
38514;DHT22;24282;48.400;10.808;2022-12-29T07:21:18;7.80;66.30
38514;DHT22;24282;48.400;10.808;2022-12-29T07:23:44;7.80;66.00
38514;DHT22;24282;48.400;10.808;2022-12-29T07:26:12;7.80;66.20
38514;DHT22;24282;48.400;10.808;2022-12-29T07:28:38;7.80;66.10
38514;DHT22;24282;48.400;10.808;2022-12-29T07:31:05;7.80;66.30
38514;DHT22;24282;48.400;10.808;2022-12-29T07:33:32;7.80;66.60
38514;DHT22;24282;48.400;10.808;2022-12-29T07:35:58;7.90;66.30
38514;DHT22;24282;48.400;10.808;2022-12-29T07:38:24;7.90;66.50
38514;DHT22;24282;48.400;10.808;2022-12-29T07:40:50;7.80;66.60
38514;DHT22;24282;48.400;10.808;2022-12-29T07:43:16;8.00;65.80
38514;DHT22;24282;48.400;10.808;2022-12-29T07:45:53;7.90;66.30
38514;DHT22;24282;48.400;10.808;2022-12-29T07:48:22;7.90;66.90
38514;DHT22;24282;48.400;10.808;2022-12-29T07:50:48;7.90;67.40
38514;DHT22;24282;48.400;10.808;2022-12-29T07:53:14;7.80;67.80
38514;DHT22;24282;48.400;10.808;2022-12-29T07:55:40;7.70;67.70
38514;DHT22;24282;48.400;10.808;2022-12-29T07:58:06;7.70;68.10
38514;DHT22;24282;48.400;10.808;2022-12-29T08:00:32;7.80;67.60
38514;DHT22;24282;48.400;10.808;2022-12-29T08:02:58;7.80;67.50
38514;DHT22;24282;48.400;10.808;2022-12-29T08:05:24;7.90;67.70
38514;DHT22;24282;48.400;10.808;2022-12-29T08:07:50;7.90;67.70
38514;DHT22;24282;48.400;10.808;2022-12-29T08:10:16;7.90;67.60
38514;DHT22;24282;48.400;10.808;2022-12-29T08:12:42;7.90;67.40
38514;DHT22;24282;48.400;10.808;2022-12-29T08:15:10;8.00;67.30
38514;DHT22;24282;48.400;10.808;2022-12-29T08:17:35;8.10;67.00
38514;DHT22;24282;48.400;10.808;2022-12-29T08:20:02;8.00;67.00
38514;DHT22;24282;48.400;10.808;2022-12-29T08:22:27;8.00;67.10
38514;DHT22;24282;48.400;10.808;2022-12-29T08:24:53;8.10;66.60
38514;DHT22;24282;48.400;10.808;2022-12-29T08:27:19;8.20;66.20
38514;DHT22;24282;48.400;10.808;2022-12-29T08:29:45;8.20;66.40
38514;DHT22;24282;48.400;10.808;2022-12-29T08:32:11;8.20;66.50
38514;DHT22;24282;48.400;10.808;2022-12-29T08:34:37;8.20;66.40
38514;DHT22;24282;48.400;10.808;2022-12-29T08:37:03;8.30;66.40
38514;DHT22;24282;48.400;10.808;2022-12-29T08:39:29;8.40;66.20
38514;DHT22;24282;48.400;10.808;2022-12-29T08:41:54;8.50;66.10
38514;DHT22;24282;48.400;10.808;2022-12-29T08:44:21;8.50;66.20
38514;DHT22;24282;48.400;10.808;2022-12-29T08:46:46;8.50;66.70
38514;DHT22;24282;48.400;10.808;2022-12-29T08:49:12;8.50;66.50
38514;DHT22;24282;48.400;10.808;2022-12-29T08:51:38;8.50;67.10
38514;DHT22;24282;48.400;10.808;2022-12-29T08:54:04;8.50;67.40
38514;DHT22;24282;48.400;10.808;2022-12-29T08:56:30;8.50;67.50
38514;DHT22;24282;48.400;10.808;2022-12-29T08:58:58;8.50;67.80
38514;DHT22;24282;48.400;10.808;2022-12-29T09:01:29;8.60;67.40
38514;DHT22;24282;48.400;10.808;2022-12-29T09:03:58;8.60;67.60
38514;DHT22;24282;48.400;10.808;2022-12-29T09:06:24;8.70;67.80
38514;DHT22;24282;48.400;10.808;2022-12-29T09:08:50;8.70;67.50
38514;DHT22;24282;48.400;10.808;2022-12-29T09:11:19;8.70;67.70
38514;DHT22;24282;48.400;10.808;2022-12-29T09:13:45;8.70;67.90
38514;DHT22;24282;48.400;10.808;2022-12-29T09:16:11;8.80;67.30
38514;DHT22;24282;48.400;10.808;2022-12-29T09:18:39;8.80;67.50
38514;DHT22;24282;48.400;10.808;2022-12-29T09:21:05;8.90;66.70
38514;DHT22;24282;48.400;10.808;2022-12-29T09:23:32;9.10;66.50
38514;DHT22;24282;48.400;10.808;2022-12-29T09:25:57;9.10;66.50
38514;DHT22;24282;48.400;10.808;2022-12-29T09:28:23;9.20;66.10
38514;DHT22;24282;48.400;10.808;2022-12-29T09:30:49;9.40;65.50
38514;DHT22;24282;48.400;10.808;2022-12-29T09:33:16;9.30;66.50
38514;DHT22;24282;48.400;10.808;2022-12-29T09:35:50;9.30;66.60
38514;DHT22;24282;48.400;10.808;2022-12-29T09:38:16;9.40;66.10
38514;DHT22;24282;48.400;10.808;2022-12-29T09:40:44;9.50;66.20
38514;DHT22;24282;48.400;10.808;2022-12-29T09:48:37;9.50;65.30
38514;DHT22;24282;48.400;10.808;2022-12-29T09:51:11;9.70;64.10
38514;DHT22;24282;48.400;10.808;2022-12-29T09:53:42;9.70;64.30
38514;DHT22;24282;48.400;10.808;2022-12-29T09:56:18;9.60;64.60
38514;DHT22;24282;48.400;10.808;2022-12-29T09:58:54;9.70;64.90
38514;DHT22;24282;48.400;10.808;2022-12-29T10:01:27;9.70;64.60
38514;DHT22;24282;48.400;10.808;2022-12-29T10:03:58;9.70;64.80
38514;DHT22;24282;48.400;10.808;2022-12-29T10:09:33;9.70;64.80
38514;DHT22;24282;48.400;10.808;2022-12-29T10:25:38;10.20;62.80
38514;DHT22;24282;48.400;10.808;2022-12-29T10:30:47;10.40;62.30
38514;DHT22;24282;48.400;10.808;2022-12-29T10:33:18;10.50;61.80
38514;DHT22;24282;48.400;10.808;2022-12-29T10:35:47;10.60;61.60
38514;DHT22;24282;48.400;10.808;2022-12-29T10:43:30;10.70;61.40
38514;DHT22;24282;48.400;10.808;2022-12-29T10:46:08;10.60;61.10
38514;DHT22;24282;48.400;10.808;2022-12-29T10:48:36;10.60;61.70
38514;DHT22;24282;48.400;10.808;2022-12-29T10:51:05;10.70;60.90
38514;DHT22;24282;48.400;10.808;2022-12-29T10:53:53;10.60;61.30
38514;DHT22;24282;48.400;10.808;2022-12-29T10:58:58;10.60;62.10
38514;DHT22;24282;48.400;10.808;2022-12-29T11:01:32;10.60;61.70
38514;DHT22;24282;48.400;10.808;2022-12-29T11:07:17;10.90;59.80
38514;DHT22;24282;48.400;10.808;2022-12-29T11:09:44;10.80;60.30
38514;DHT22;24282;48.400;10.808;2022-12-29T11:12:19;10.80;59.50
38514;DHT22;24282;48.400;10.808;2022-12-29T11:14:46;10.90;59.30
38514;DHT22;24282;48.400;10.808;2022-12-29T11:17:16;10.90;58.90
38514;DHT22;24282;48.400;10.808;2022-12-29T11:19:42;10.90;59.20
38514;DHT22;24282;48.400;10.808;2022-12-29T11:22:22;10.90;58.90
38514;DHT22;24282;48.400;10.808;2022-12-29T11:24:49;11.00;58.90
38514;DHT22;24282;48.400;10.808;2022-12-29T11:29:42;11.10;58.10
38514;DHT22;24282;48.400;10.808;2022-12-29T11:32:27;11.20;58.40
38514;DHT22;24282;48.400;10.808;2022-12-29T11:34:58;11.30;58.20
38514;DHT22;24282;48.400;10.808;2022-12-29T11:37:36;11.40;57.20
38514;DHT22;24282;48.400;10.808;2022-12-29T11:40:05;11.50;57.00
38514;DHT22;24282;48.400;10.808;2022-12-29T11:42:37;11.60;56.70
38514;DHT22;24282;48.400;10.808;2022-12-29T11:45:06;11.70;56.20
38514;DHT22;24282;48.400;10.808;2022-12-29T11:47:35;11.80;56.00
38514;DHT22;24282;48.400;10.808;2022-12-29T11:50:05;11.90;55.30
38514;DHT22;24282;48.400;10.808;2022-12-29T11:52:35;12.00;55.00
38514;DHT22;24282;48.400;10.808;2022-12-29T11:55:04;11.90;55.00
38514;DHT22;24282;48.400;10.808;2022-12-29T11:57:33;12.00;54.60
38514;DHT22;24282;48.400;10.808;2022-12-29T12:00:03;12.00;55.20
38514;DHT22;24282;48.400;10.808;2022-12-29T12:05:43;12.00;54.60
38514;DHT22;24282;48.400;10.808;2022-12-29T12:17:05;12.00;55.40
38514;DHT22;24282;48.400;10.808;2022-12-29T12:22:54;11.90;56.50
38514;DHT22;24282;48.400;10.808;2022-12-29T12:25:31;11.80;56.80
38514;DHT22;24282;48.400;10.808;2022-12-29T12:28:24;11.80;57.30
38514;DHT22;24282;48.400;10.808;2022-12-29T12:30:55;11.70;57.50
38514;DHT22;24282;48.400;10.808;2022-12-29T12:33:30;11.70;57.10
38514;DHT22;24282;48.400;10.808;2022-12-29T12:41:56;11.60;59.20
38514;DHT22;24282;48.400;10.808;2022-12-29T12:44:45;11.50;58.90
38514;DHT22;24282;48.400;10.808;2022-12-29T12:47:29;11.60;58.60
38514;DHT22;24282;48.400;10.808;2022-12-29T13:20:49;11.80;60.00
38514;DHT22;24282;48.400;10.808;2022-12-29T13:26:26;11.60;60.40
38514;DHT22;24282;48.400;10.808;2022-12-29T13:28:53;11.50;61.00
38514;DHT22;24282;48.400;10.808;2022-12-29T13:31:52;11.50;61.30
38514;DHT22;24282;48.400;10.808;2022-12-29T13:34:43;11.50;61.70
38514;DHT22;24282;48.400;10.808;2022-12-29T13:37:20;11.50;61.90
38514;DHT22;24282;48.400;10.808;2022-12-29T13:39:51;11.60;62.20
38514;DHT22;24282;48.400;10.808;2022-12-29T13:42:18;11.60;61.80
38514;DHT22;24282;48.400;10.808;2022-12-29T13:44:59;11.60;62.60
38514;DHT22;24282;48.400;10.808;2022-12-29T13:49:56;11.60;62.50
38514;DHT22;24282;48.400;10.808;2022-12-29T13:52:55;11.50;62.60
38514;DHT22;24282;48.400;10.808;2022-12-29T13:58:11;11.70;62.60
38514;DHT22;24282;48.400;10.808;2022-12-29T14:00:55;11.70;62.00
38514;DHT22;24282;48.400;10.808;2022-12-29T14:08:58;11.50;63.00
38514;DHT22;24282;48.400;10.808;2022-12-29T14:11:31;11.50;63.20
38514;DHT22;24282;48.400;10.808;2022-12-29T14:13:58;11.40;63.70
38514;DHT22;24282;48.400;10.808;2022-12-29T14:16:31;11.40;63.40
38514;DHT22;24282;48.400;10.808;2022-12-29T14:19:14;11.40;63.60
38514;DHT22;24282;48.400;10.808;2022-12-29T14:21:49;11.30;63.60
38514;DHT22;24282;48.400;10.808;2022-12-29T14:34:53;11.30;63.10
38514;DHT22;24282;48.400;10.808;2022-12-29T14:37:33;11.20;63.40
38514;DHT22;24282;48.400;10.808;2022-12-29T14:42:29;11.10;63.70
38514;DHT22;24282;48.400;10.808;2022-12-29T14:45:06;11.20;63.50
38514;DHT22;24282;48.400;10.808;2022-12-29T14:47:38;11.10;63.60
38514;DHT22;24282;48.400;10.808;2022-12-29T14:53:04;11.00;64.50
38514;DHT22;24282;48.400;10.808;2022-12-29T14:55:43;10.90;64.60
38514;DHT22;24282;48.400;10.808;2022-12-29T14:58:18;10.80;65.10
38514;DHT22;24282;48.400;10.808;2022-12-29T15:00:46;10.70;65.60
38514;DHT22;24282;48.400;10.808;2022-12-29T15:05:49;10.60;66.10
38514;DHT22;24282;48.400;10.808;2022-12-29T15:08:19;10.50;66.30
38514;DHT22;24282;48.400;10.808;2022-12-29T15:10:53;10.50;66.50
38514;DHT22;24282;48.400;10.808;2022-12-29T15:13:33;10.40;66.40
38514;DHT22;24282;48.400;10.808;2022-12-29T15:15:59;10.40;66.70
38514;DHT22;24282;48.400;10.808;2022-12-29T15:18:27;10.30;66.90
38514;DHT22;24282;48.400;10.808;2022-12-29T15:20:59;10.30;67.20
38514;DHT22;24282;48.400;10.808;2022-12-29T15:23:26;10.20;67.30
38514;DHT22;24282;48.400;10.808;2022-12-29T15:26:04;10.20;67.40
38514;DHT22;24282;48.400;10.808;2022-12-29T15:28:44;10.20;67.70
38514;DHT22;24282;48.400;10.808;2022-12-29T15:33:43;10.00;68.30
38514;DHT22;24282;48.400;10.808;2022-12-29T15:36:14;10.00;68.50
38514;DHT22;24282;48.400;10.808;2022-12-29T15:38:43;10.00;68.70
38514;DHT22;24282;48.400;10.808;2022-12-29T15:43:52;9.90;69.20
38514;DHT22;24282;48.400;10.808;2022-12-29T15:46:19;9.90;69.30
38514;DHT22;24282;48.400;10.808;2022-12-29T15:48:45;9.90;69.30
38514;DHT22;24282;48.400;10.808;2022-12-29T15:51:26;9.90;69.30
38514;DHT22;24282;48.400;10.808;2022-12-29T15:53:54;9.80;69.40
38514;DHT22;24282;48.400;10.808;2022-12-29T15:56:20;9.80;69.70
38514;DHT22;24282;48.400;10.808;2022-12-29T15:58:51;9.80;69.90
38514;DHT22;24282;48.400;10.808;2022-12-29T16:01:24;9.70;70.20
38514;DHT22;24282;48.400;10.808;2022-12-29T16:03:53;9.70;70.40
38514;DHT22;24282;48.400;10.808;2022-12-29T16:06:34;9.70;70.70
38514;DHT22;24282;48.400;10.808;2022-12-29T16:09:15;9.70;70.80
38514;DHT22;24282;48.400;10.808;2022-12-29T16:11:46;9.70;70.80
38514;DHT22;24282;48.400;10.808;2022-12-29T16:14:17;9.60;71.00
38514;DHT22;24282;48.400;10.808;2022-12-29T16:16:45;9.70;71.10
38514;DHT22;24282;48.400;10.808;2022-12-29T16:19:19;9.60;71.10
38514;DHT22;24282;48.400;10.808;2022-12-29T16:21:47;9.60;71.20
38514;DHT22;24282;48.400;10.808;2022-12-29T16:24:16;9.70;71.40
38514;DHT22;24282;48.400;10.808;2022-12-29T16:26:53;9.60;71.50
38514;DHT22;24282;48.400;10.808;2022-12-29T16:29:20;9.60;71.60
38514;DHT22;24282;48.400;10.808;2022-12-29T16:31:56;9.60;71.50
38514;DHT22;24282;48.400;10.808;2022-12-29T16:39:47;9.60;71.90
38514;DHT22;24282;48.400;10.808;2022-12-29T16:42:36;9.60;71.90
38514;DHT22;24282;48.400;10.808;2022-12-29T16:50:38;9.60;72.10
38514;DHT22;24282;48.400;10.808;2022-12-29T16:53:05;9.60;72.20
38514;DHT22;24282;48.400;10.808;2022-12-29T16:55:31;9.60;72.40
38514;DHT22;24282;48.400;10.808;2022-12-29T16:57:58;9.60;72.40
38514;DHT22;24282;48.400;10.808;2022-12-29T17:00:31;9.50;72.30
38514;DHT22;24282;48.400;10.808;2022-12-29T17:03:00;9.50;72.30
38514;DHT22;24282;48.400;10.808;2022-12-29T17:05:27;9.50;72.10
38514;DHT22;24282;48.400;10.808;2022-12-29T17:07:52;9.50;72.00
38514;DHT22;24282;48.400;10.808;2022-12-29T17:10:18;9.50;71.90
38514;DHT22;24282;48.400;10.808;2022-12-29T17:12:46;9.60;71.90
38514;DHT22;24282;48.400;10.808;2022-12-29T17:15:26;9.50;71.90
38514;DHT22;24282;48.400;10.808;2022-12-29T17:17:55;9.60;71.90
38514;DHT22;24282;48.400;10.808;2022-12-29T17:20:23;9.50;71.90
38514;DHT22;24282;48.400;10.808;2022-12-29T17:22:50;9.50;71.70
38514;DHT22;24282;48.400;10.808;2022-12-29T17:25:21;9.50;71.80
38514;DHT22;24282;48.400;10.808;2022-12-29T17:27:51;9.50;71.90
38514;DHT22;24282;48.400;10.808;2022-12-29T17:30:21;9.50;72.20
38514;DHT22;24282;48.400;10.808;2022-12-29T17:32:57;9.40;72.30
38514;DHT22;24282;48.400;10.808;2022-12-29T17:35:26;9.40;72.40
38514;DHT22;24282;48.400;10.808;2022-12-29T17:37:54;9.40;72.50
38514;DHT22;24282;48.400;10.808;2022-12-29T17:40:28;9.40;72.60
38514;DHT22;24282;48.400;10.808;2022-12-29T17:42:56;9.40;72.50
38514;DHT22;24282;48.400;10.808;2022-12-29T17:45:27;9.40;72.40
38514;DHT22;24282;48.400;10.808;2022-12-29T17:47:53;9.50;72.30
38514;DHT22;24282;48.400;10.808;2022-12-29T17:50:22;9.50;72.30
38514;DHT22;24282;48.400;10.808;2022-12-29T17:52:53;9.50;72.30
38514;DHT22;24282;48.400;10.808;2022-12-29T17:55:21;9.40;72.60
38514;DHT22;24282;48.400;10.808;2022-12-29T17:57:47;9.40;72.80
38514;DHT22;24282;48.400;10.808;2022-12-29T18:00:25;9.40;72.90
38514;DHT22;24282;48.400;10.808;2022-12-29T18:02:53;9.40;73.10
38514;DHT22;24282;48.400;10.808;2022-12-29T18:05:29;9.40;73.00
38514;DHT22;24282;48.400;10.808;2022-12-29T18:07:57;9.40;73.10
38514;DHT22;24282;48.400;10.808;2022-12-29T18:10:25;9.30;73.20
38514;DHT22;24282;48.400;10.808;2022-12-29T18:12:53;9.20;73.30
38514;DHT22;24282;48.400;10.808;2022-12-29T18:17:47;9.20;73.60
38514;DHT22;24282;48.400;10.808;2022-12-29T18:20:13;9.20;73.70
38514;DHT22;24282;48.400;10.808;2022-12-29T18:22:39;9.20;73.80
38514;DHT22;24282;48.400;10.808;2022-12-29T18:25:30;9.20;73.90
38514;DHT22;24282;48.400;10.808;2022-12-29T18:27:58;9.20;73.80
38514;DHT22;24282;48.400;10.808;2022-12-29T18:30:23;9.20;73.80
38514;DHT22;24282;48.400;10.808;2022-12-29T18:32:49;9.20;73.80
38514;DHT22;24282;48.400;10.808;2022-12-29T18:35:25;9.30;73.60
38514;DHT22;24282;48.400;10.808;2022-12-29T18:37:51;9.30;73.50
38514;DHT22;24282;48.400;10.808;2022-12-29T18:40:17;9.40;73.40
38514;DHT22;24282;48.400;10.808;2022-12-29T18:42:44;9.50;73.10
38514;DHT22;24282;48.400;10.808;2022-12-29T18:45:21;9.50;73.10
38514;DHT22;24282;48.400;10.808;2022-12-29T18:47:48;9.50;72.90
38514;DHT22;24282;48.400;10.808;2022-12-29T18:50:14;9.50;73.00
38514;DHT22;24282;48.400;10.808;2022-12-29T18:52:40;9.50;73.10